Jennifer — WDF6480 — position and weather

sailwx.info

Track history (hours):
 
Tides and Currents Weather Stations Pressure Air Temp Water Temp Dewpoint Dewpoint Depression Visibility Wind Speed Wind Dir Waves Ship Positions

Jennifer

Owner: John W. Stone Oil Distributor, L.L.C., Gretna, LA. More information available from US FCC via Universal Licensing System and Coast Guard Vessel Documentation Center.

Last reported at 2014-Nov-23 15:32 UTC. Time now 2014-Nov-23 23:59 UTC.
Position N 29°55' W 089°58'.

Length 18 m; draft 3 m.

Type: Tug. MMSI: 367474690.

Date/timePositionNaut miles runAvg speedWind from/ knotsBaromVisibWave heightAir tempDewpointWater temp
2014-Nov-23 15:32N 29°55' W 089°58'5 4.6
2014-Nov-23 14:26N 29°55' W 090°04'0 0.0
2014-Nov-23 13:29N 29°55' W 090°04'0 0.0
2014-Nov-23 12:33N 29°55' W 090°04'0 0.0
2014-Nov-23 11:30N 29°55' W 090°04'0 0.0
2014-Nov-23 10:33N 29°55' W 090°04'0 0.0
2014-Nov-23 09:30N 29°55' W 090°04'0 0.0
2014-Nov-23 08:33N 29°55' W 090°04'0 0.0
2014-Nov-23 07:32N 29°55' W 090°04'0 0.0
2014-Nov-23 06:32N 29°55' W 090°04'0 0.0
2014-Nov-23 05:33N 29°55' W 090°04'0 0.0
2014-Nov-23 04:33N 29°55' W 090°04'0 0.0
2014-Nov-23 03:33N 29°55' W 090°04'0 0.0
2014-Nov-23 02:33N 29°55' W 090°04'0 0.3
2014-Nov-23 01:32N 29°55' W 090°04'4 3.9
2014-Nov-23 00:33N 29°56' W 090°08'1 0.2
2014-Nov-22 20:19N 29°57' W 090°09'3 4.5
2014-Nov-22 19:33N 29°55' W 090°05'2 1.5
2014-Nov-22 18:31N 29°55' W 090°04'0 0.1
2014-Nov-22 17:34N 29°55' W 090°04'0 0.2
2014-Nov-22 16:20N 29°56' W 090°04'4 0.1
2014-Nov-21 11:30N 29°57' W 090°08'3 3.3
2014-Nov-21 10:33N 29°55' W 090°06'2 1.8
2014-Nov-21 09:31N 29°55' W 090°04'0 0.0
2014-Nov-21 08:33N 29°55' W 090°04'0 0.0
2014-Nov-21 07:26N 29°55' W 090°04'0 0.1
2014-Nov-21 06:33N 29°56' W 090°04'0 0.0
2014-Nov-21 05:33N 29°56' W 090°04'0 0.1
2014-Nov-21 04:32N 29°56' W 090°04'0 0.4
2014-Nov-21 03:22N 29°56' W 090°03'0 0.0
2014-Nov-20 09:10N 29°56' W 090°03'4 0.6
2014-Nov-20 02:07N 29°53' W 089°60'  
2014-Nov-17 11:18N 29°55' W 090°04'0 0.0
2014-Nov-17 10:22N 29°55' W 090°04'0 0.1
2014-Nov-17 09:22N 29°55' W 090°04'0 0.1
2014-Nov-17 08:33N 29°55' W 090°04'0 0.0
2014-Nov-17 07:20N 29°55' W 090°04'0 0.0
2014-Nov-17 06:31N 29°55' W 090°04'0 0.0
2014-Nov-17 05:33N 29°55' W 090°04'0 0.0
2014-Nov-17 04:33N 29°55' W 090°04'0 0.0
2014-Nov-17 03:33N 29°55' W 090°04'4 3.9
2014-Nov-17 02:30N 29°56' W 090°08'0 0.0
2014-Nov-17 00:14N 29°56' W 090°08'3 3.2
2014-Nov-16 23:25N 29°55' W 090°06'2 0.1
2014-Nov-16 08:24N 29°55' W 090°04'0 0.0
2014-Nov-16 07:27N 29°55' W 090°04'0 0.0
2014-Nov-16 06:28N 29°55' W 090°04'0 0.0
2014-Nov-16 05:33N 29°55' W 090°04'0 0.0
2014-Nov-16 04:33N 29°55' W 090°04'0 0.0
2014-Nov-16 03:31N 29°55' W 090°04'0 0.0
2014-Nov-16 02:32N 29°55' W 090°04'0 0.1
2014-Nov-16 01:33N 29°55' W 090°04'0 0.0
2014-Nov-16 00:32N 29°55' W 090°04'0 0.0
2014-Nov-15 23:32N 29°55' W 090°04'0 0.0
2014-Nov-15 22:33N 29°55' W 090°04'0 0.1
2014-Nov-15 21:31N 29°56' W 090°04'1 0.9
2014-Nov-15 20:33N 29°56' W 090°03'  
Track history (hours):
 
Tides and Currents Weather Stations Pressure Air Temp Water Temp Dewpoint Dewpoint Depression Visibility Wind Speed Wind Dir Waves Ship Positions

Jennifer

Owner: John W. Stone Oil Distributor, L.L.C., Gretna, LA. More information available from US FCC via Universal Licensing System and Coast Guard Vessel Documentation Center.

Last reported at 2014-Nov-23 15:32 UTC. Time now 2014-Nov-23 23:59 UTC.
Position N 29°55' W 089°58'.

Length 18 m; draft 3 m.

Type: Tug. MMSI: 367474690.

Date/timePositionNaut miles runAvg speedWind from/ knotsBaromVisibWave heightAir tempDewpointWater temp
2014-Nov-23 15:32N 29°55' W 089°58'5 4.6
2014-Nov-23 14:26N 29°55' W 090°04'0 0.0
2014-Nov-23 13:29N 29°55' W 090°04'0 0.0
2014-Nov-23 12:33N 29°55' W 090°04'0 0.0
2014-Nov-23 11:30N 29°55' W 090°04'0 0.0
2014-Nov-23 10:33N 29°55' W 090°04'0 0.0
2014-Nov-23 09:30N 29°55' W 090°04'0 0.0
2014-Nov-23 08:33N 29°55' W 090°04'0 0.0
2014-Nov-23 07:32N 29°55' W 090°04'0 0.0
2014-Nov-23 06:32N 29°55' W 090°04'0 0.0
2014-Nov-23 05:33N 29°55' W 090°04'0 0.0
2014-Nov-23 04:33N 29°55' W 090°04'0 0.0
2014-Nov-23 03:33N 29°55' W 090°04'0 0.0
2014-Nov-23 02:33N 29°55' W 090°04'0 0.3
2014-Nov-23 01:32N 29°55' W 090°04'4 3.9
2014-Nov-23 00:33N 29°56' W 090°08'1 0.2
2014-Nov-22 20:19N 29°57' W 090°09'3 4.5
2014-Nov-22 19:33N 29°55' W 090°05'2 1.5
2014-Nov-22 18:31N 29°55' W 090°04'0 0.1
2014-Nov-22 17:34N 29°55' W 090°04'0 0.2
2014-Nov-22 16:20N 29°56' W 090°04'4 0.1
2014-Nov-21 11:30N 29°57' W 090°08'3 3.3
2014-Nov-21 10:33N 29°55' W 090°06'2 1.8
2014-Nov-21 09:31N 29°55' W 090°04'0 0.0
2014-Nov-21 08:33N 29°55' W 090°04'0 0.0
2014-Nov-21 07:26N 29°55' W 090°04'0 0.1
2014-Nov-21 06:33N 29°56' W 090°04'0 0.0
2014-Nov-21 05:33N 29°56' W 090°04'0 0.1
2014-Nov-21 04:32N 29°56' W 090°04'0 0.4
2014-Nov-21 03:22N 29°56' W 090°03'0 0.0
2014-Nov-20 09:10N 29°56' W 090°03'4 0.6
2014-Nov-20 02:07N 29°53' W 089°60'  
2014-Nov-17 11:18N 29°55' W 090°04'0 0.0
2014-Nov-17 10:22N 29°55' W 090°04'0 0.1
2014-Nov-17 09:22N 29°55' W 090°04'0 0.1
2014-Nov-17 08:33N 29°55' W 090°04'0 0.0
2014-Nov-17 07:20N 29°55' W 090°04'0 0.0
2014-Nov-17 06:31N 29°55' W 090°04'0 0.0
2014-Nov-17 05:33N 29°55' W 090°04'0 0.0
2014-Nov-17 04:33N 29°55' W 090°04'0 0.0
2014-Nov-17 03:33N 29°55' W 090°04'4 3.9
2014-Nov-17 02:30N 29°56' W 090°08'0 0.0
2014-Nov-17 00:14N 29°56' W 090°08'3 3.2
2014-Nov-16 23:25N 29°55' W 090°06'2 0.1
2014-Nov-16 08:24N 29°55' W 090°04'0 0.0
2014-Nov-16 07:27N 29°55' W 090°04'0 0.0
2014-Nov-16 06:28N 29°55' W 090°04'0 0.0
2014-Nov-16 05:33N 29°55' W 090°04'0 0.0
2014-Nov-16 04:33N 29°55' W 090°04'0 0.0
2014-Nov-16 03:31N 29°55' W 090°04'0 0.0
2014-Nov-16 02:32N 29°55' W 090°04'0 0.1
2014-Nov-16 01:33N 29°55' W 090°04'0 0.0
2014-Nov-16 00:32N 29°55' W 090°04'0 0.0
2014-Nov-15 23:32N 29°55' W 090°04'0 0.0
2014-Nov-15 22:33N 29°55' W 090°04'0 0.1
2014-Nov-15 21:31N 29°56' W 090°04'1 0.9
2014-Nov-15 20:33N 29°56' W 090°03'  

Dump ship's entire track history